sensor_id;sensor_type;location;lat;lon;timestamp;pressure;altitude;pressure_sealevel;temperature;humidity
23339;BME280;11841;49.368;20.962;2023-04-28T00:00:09;96203.63;;;2.62;78.25
23339;BME280;11841;49.368;20.962;2023-04-28T00:02:55;96204.09;;;2.58;77.83
23339;BME280;11841;49.368;20.962;2023-04-28T00:05:40;96202.09;;;2.52;77.48
23339;BME280;11841;49.368;20.962;2023-04-28T00:08:26;96199.44;;;2.43;77.78
23339;BME280;11841;49.368;20.962;2023-04-28T00:11:11;96196.50;;;2.46;77.54
23339;BME280;11841;49.368;20.962;2023-04-28T00:13:57;96207.66;;;2.48;78.03
23339;BME280;11841;49.368;20.962;2023-04-28T00:16:42;96212.53;;;2.43;78.31
23339;BME280;11841;49.368;20.962;2023-04-28T00:19:27;96203.50;;;2.38;77.77
23339;BME280;11841;49.368;20.962;2023-04-28T00:22:13;96214.06;;;2.28;78.01
23339;BME280;11841;49.368;20.962;2023-04-28T00:24:59;96218.28;;;2.21;77.97
23339;BME280;11841;49.368;20.962;2023-04-28T00:27:44;96226.88;;;2.14;77.97
23339;BME280;11841;49.368;20.962;2023-04-28T00:30:30;96219.50;;;2.09;78.66
23339;BME280;11841;49.368;20.962;2023-04-28T00:33:15;96221.94;;;2.11;78.79
23339;BME280;11841;49.368;20.962;2023-04-28T00:36:00;96221.63;;;2.14;78.30
23339;BME280;11841;49.368;20.962;2023-04-28T00:38:45;96220.53;;;2.16;77.79
23339;BME280;11841;49.368;20.962;2023-04-28T00:41:33;96222.78;;;2.11;77.84
23339;BME280;11841;49.368;20.962;2023-04-28T00:44:18;96221.16;;;2.10;77.99
23339;BME280;11841;49.368;20.962;2023-04-28T00:47:04;96221.06;;;2.02;77.43
23339;BME280;11841;49.368;20.962;2023-04-28T00:49:49;96217.72;;;1.92;77.61
23339;BME280;11841;49.368;20.962;2023-04-28T00:52:35;96223.25;;;1.89;77.92
23339;BME280;11841;49.368;20.962;2023-04-28T00:55:21;96225.19;;;1.87;77.49
23339;BME280;11841;49.368;20.962;2023-04-28T00:58:06;96224.16;;;1.80;77.45
23339;BME280;11841;49.368;20.962;2023-04-28T01:00:52;96224.31;;;1.79;78.07
23339;BME280;11841;49.368;20.962;2023-04-28T01:03:39;96227.53;;;1.73;77.90
23339;BME280;11841;49.368;20.962;2023-04-28T01:06:26;96231.25;;;1.70;78.12
23339;BME280;11841;49.368;20.962;2023-04-28T01:09:12;96229.09;;;1.66;77.87
23339;BME280;11841;49.368;20.962;2023-04-28T01:11:58;96225.97;;;1.62;77.94
23339;BME280;11841;49.368;20.962;2023-04-28T01:14:44;96230.06;;;1.65;78.13
23339;BME280;11841;49.368;20.962;2023-04-28T01:17:29;96229.25;;;1.64;77.84
23339;BME280;11841;49.368;20.962;2023-04-28T01:20:14;96234.34;;;1.66;77.66
23339;BME280;11841;49.368;20.962;2023-04-28T01:22:59;96220.75;;;1.62;77.66
23339;BME280;11841;49.368;20.962;2023-04-28T01:25:45;96218.44;;;1.59;77.67
23339;BME280;11841;49.368;20.962;2023-04-28T01:28:31;96221.31;;;1.56;77.35
23339;BME280;11841;49.368;20.962;2023-04-28T01:31:16;96219.00;;;1.53;77.59
23339;BME280;11841;49.368;20.962;2023-04-28T01:34:01;96214.25;;;1.49;77.39
23339;BME280;11841;49.368;20.962;2023-04-28T01:36:47;96214.03;;;1.42;77.63
23339;BME280;11841;49.368;20.962;2023-04-28T01:39:32;96225.03;;;1.36;77.90
23339;BME280;11841;49.368;20.962;2023-04-28T01:42:18;96221.09;;;1.32;77.93
23339;BME280;11841;49.368;20.962;2023-04-28T01:45:04;96212.22;;;1.25;77.91
23339;BME280;11841;49.368;20.962;2023-04-28T01:47:49;96215.53;;;1.17;78.07
23339;BME280;11841;49.368;20.962;2023-04-28T01:50:35;96219.72;;;1.10;78.16
23339;BME280;11841;49.368;20.962;2023-04-28T01:53:20;96214.50;;;1.10;78.16
23339;BME280;11841;49.368;20.962;2023-04-28T01:56:05;96214.78;;;1.07;78.01
23339;BME280;11841;49.368;20.962;2023-04-28T01:58:51;96220.84;;;1.08;78.21
23339;BME280;11841;49.368;20.962;2023-04-28T02:01:36;96217.25;;;1.09;77.82
23339;BME280;11841;49.368;20.962;2023-04-28T02:04:21;96217.78;;;1.12;77.72
23339;BME280;11841;49.368;20.962;2023-04-28T02:07:07;96212.56;;;1.12;77.61
23339;BME280;11841;49.368;20.962;2023-04-28T02:09:52;96212.13;;;1.17;77.64
23339;BME280;11841;49.368;20.962;2023-04-28T02:12:38;96215.16;;;1.12;77.41
23339;BME280;11841;49.368;20.962;2023-04-28T02:15:23;96217.53;;;1.06;78.06
23339;BME280;11841;49.368;20.962;2023-04-28T02:18:11;96223.06;;;1.03;77.69
23339;BME280;11841;49.368;20.962;2023-04-28T02:20:56;96225.81;;;1.01;77.58
23339;BME280;11841;49.368;20.962;2023-04-28T02:23:42;96232.16;;;0.99;77.45
23339;BME280;11841;49.368;20.962;2023-04-28T02:26:27;96233.03;;;0.90;78.00
23339;BME280;11841;49.368;20.962;2023-04-28T02:29:12;96231.00;;;0.84;77.77
23339;BME280;11841;49.368;20.962;2023-04-28T02:31:58;96233.59;;;0.84;78.02
23339;BME280;11841;49.368;20.962;2023-04-28T02:34:43;96232.22;;;0.80;78.09
23339;BME280;11841;49.368;20.962;2023-04-28T02:37:28;96242.41;;;0.83;77.88
23339;BME280;11841;49.368;20.962;2023-04-28T02:40:13;96240.22;;;0.78;77.82
23339;BME280;11841;49.368;20.962;2023-04-28T02:42:59;96240.66;;;0.74;77.80
23339;BME280;11841;49.368;20.962;2023-04-28T02:45:44;96230.22;;;0.74;77.86
23339;BME280;11841;49.368;20.962;2023-04-28T02:48:30;96236.69;;;0.70;77.61
23339;BME280;11841;49.368;20.962;2023-04-28T02:51:16;96231.38;;;0.62;78.11
23339;BME280;11841;49.368;20.962;2023-04-28T02:54:01;96237.81;;;0.58;78.08
23339;BME280;11841;49.368;20.962;2023-04-28T02:56:46;96230.97;;;0.57;78.00
23339;BME280;11841;49.368;20.962;2023-04-28T02:59:32;96234.41;;;0.57;78.04
23339;BME280;11841;49.368;20.962;2023-04-28T03:02:17;96236.47;;;0.54;77.86
23339;BME280;11841;49.368;20.962;2023-04-28T03:05:04;96240.88;;;0.53;78.10
23339;BME280;11841;49.368;20.962;2023-04-28T03:07:50;96248.69;;;0.53;77.92
23339;BME280;11841;49.368;20.962;2023-04-28T03:10:36;96243.09;;;0.48;77.94
23339;BME280;11841;49.368;20.962;2023-04-28T03:13:21;96256.56;;;0.44;78.18
23339;BME280;11841;49.368;20.962;2023-04-28T03:16:07;96255.03;;;0.41;77.79
23339;BME280;11841;49.368;20.962;2023-04-28T03:18:52;96261.25;;;0.40;77.96
23339;BME280;11841;49.368;20.962;2023-04-28T03:21:37;96262.19;;;0.39;78.05
23339;BME280;11841;49.368;20.962;2023-04-28T03:24:22;96261.09;;;0.42;77.66
23339;BME280;11841;49.368;20.962;2023-04-28T03:27:08;96266.44;;;0.40;78.06
23339;BME280;11841;49.368;20.962;2023-04-28T03:29:53;96265.34;;;0.43;77.60
23339;BME280;11841;49.368;20.962;2023-04-28T03:32:38;96268.63;;;0.45;77.74
23339;BME280;11841;49.368;20.962;2023-04-28T03:35:24;96268.09;;;0.41;77.82
23339;BME280;11841;49.368;20.962;2023-04-28T03:38:09;96268.22;;;0.40;77.97
23339;BME280;11841;49.368;20.962;2023-04-28T03:40:55;96264.94;;;0.38;78.02
23339;BME280;11841;49.368;20.962;2023-04-28T03:43:40;96256.84;;;0.41;78.02
23339;BME280;11841;49.368;20.962;2023-04-28T03:46:25;96263.16;;;0.38;78.02
23339;BME280;11841;49.368;20.962;2023-04-28T03:49:11;96265.47;;;0.41;78.31
23339;BME280;11841;49.368;20.962;2023-04-28T03:51:56;96259.31;;;0.42;78.16
23339;BME280;11841;49.368;20.962;2023-04-28T03:54:41;96267.13;;;0.42;78.03
23339;BME280;11841;49.368;20.962;2023-04-28T03:57:26;96266.44;;;0.40;78.17
23339;BME280;11841;49.368;20.962;2023-04-28T04:00:12;96261.53;;;0.37;78.50
23339;BME280;11841;49.368;20.962;2023-04-28T04:02:57;96270.00;;;0.39;78.61
23339;BME280;11841;49.368;20.962;2023-04-28T04:05:43;96260.69;;;0.37;78.92
23339;BME280;11841;49.368;20.962;2023-04-28T04:08:29;96267.69;;;0.36;78.77
23339;BME280;11841;49.368;20.962;2023-04-28T04:11:14;96268.38;;;0.38;79.04
23339;BME280;11841;49.368;20.962;2023-04-28T04:13:59;96267.78;;;0.44;78.90
23339;BME280;11841;49.368;20.962;2023-04-28T04:16:45;96267.53;;;0.47;78.41
23339;BME280;11841;49.368;20.962;2023-04-28T04:19:31;96268.06;;;0.51;78.91
23339;BME280;11841;49.368;20.962;2023-04-28T04:22:16;96271.63;;;0.50;79.06
23339;BME280;11841;49.368;20.962;2023-04-28T04:25:01;96271.34;;;0.53;79.07
23339;BME280;11841;49.368;20.962;2023-04-28T04:27:47;96270.94;;;0.57;79.45
23339;BME280;11841;49.368;20.962;2023-04-28T04:30:33;96267.34;;;0.68;79.70
23339;BME280;11841;49.368;20.962;2023-04-28T04:33:18;96275.94;;;0.78;79.81
23339;BME280;11841;49.368;20.962;2023-04-28T04:36:04;96276.34;;;0.83;79.96
23339;BME280;11841;49.368;20.962;2023-04-28T04:38:49;96283.88;;;0.86;79.77
23339;BME280;11841;49.368;20.962;2023-04-28T04:41:38;96271.78;;;0.85;79.60
23339;BME280;11841;49.368;20.962;2023-04-28T04:44:23;96274.38;;;0.85;79.98
23339;BME280;11841;49.368;20.962;2023-04-28T04:47:08;96269.06;;;0.86;80.36
23339;BME280;11841;49.368;20.962;2023-04-28T04:49:54;96266.28;;;0.88;80.54
23339;BME280;11841;49.368;20.962;2023-04-28T04:52:40;96261.59;;;0.91;80.87
23339;BME280;11841;49.368;20.962;2023-04-28T04:55:25;96265.69;;;0.94;80.98
23339;BME280;11841;49.368;20.962;2023-04-28T04:58:11;96261.84;;;0.98;80.83
23339;BME280;11841;49.368;20.962;2023-04-28T05:00:56;96260.56;;;1.02;81.32
23339;BME280;11841;49.368;20.962;2023-04-28T05:03:42;96255.72;;;1.07;81.10
23339;BME280;11841;49.368;20.962;2023-04-28T05:06:27;96255.47;;;1.10;81.45
23339;BME280;11841;49.368;20.962;2023-04-28T05:09:13;96251.56;;;1.14;81.60
23339;BME280;11841;49.368;20.962;2023-04-28T05:11:58;96256.91;;;1.22;81.89
23339;BME280;11841;49.368;20.962;2023-04-28T05:14:43;96257.94;;;1.29;82.37
23339;BME280;11841;49.368;20.962;2023-04-28T05:17:29;96261.63;;;1.36;82.13
23339;BME280;11841;49.368;20.962;2023-04-28T05:20:14;96257.59;;;1.42;81.88
23339;BME280;11841;49.368;20.962;2023-04-28T05:23:00;96253.59;;;1.47;81.97
23339;BME280;11841;49.368;20.962;2023-04-28T05:25:46;96261.50;;;1.55;81.97
23339;BME280;11841;49.368;20.962;2023-04-28T05:28:31;96253.88;;;1.62;82.33
23339;BME280;11841;49.368;20.962;2023-04-28T05:31:17;96252.09;;;1.62;83.73
23339;BME280;11841;49.368;20.962;2023-04-28T05:34:02;96252.09;;;1.62;84.57
23339;BME280;11841;49.368;20.962;2023-04-28T05:36:47;96247.94;;;1.69;84.37
23339;BME280;11841;49.368;20.962;2023-04-28T05:39:33;96249.78;;;1.77;84.40
23339;BME280;11841;49.368;20.962;2023-04-28T05:42:18;96244.50;;;1.86;84.64
23339;BME280;11841;49.368;20.962;2023-04-28T05:45:05;96244.19;;;1.89;85.55
23339;BME280;11841;49.368;20.962;2023-04-28T05:47:51;96247.69;;;1.98;85.07
23339;BME280;11841;49.368;20.962;2023-04-28T05:50:36;96253.81;;;2.06;84.65
23339;BME280;11841;49.368;20.962;2023-04-28T05:53:23;96256.47;;;2.14;85.43
23339;BME280;11841;49.368;20.962;2023-04-28T05:56:08;96251.28;;;2.22;85.95
23339;BME280;11841;49.368;20.962;2023-04-28T05:58:54;96252.00;;;2.32;85.16
23339;BME280;11841;49.368;20.962;2023-04-28T06:01:39;96260.91;;;2.39;85.56
23339;BME280;11841;49.368;20.962;2023-04-28T06:04:25;96254.91;;;2.47;86.50
23339;BME280;11841;49.368;20.962;2023-04-28T06:07:11;96247.94;;;2.56;85.82
23339;BME280;11841;49.368;20.962;2023-04-28T06:09:56;96252.25;;;2.65;87.02
23339;BME280;11841;49.368;20.962;2023-04-28T06:12:41;96244.13;;;2.76;87.69
23339;BME280;11841;49.368;20.962;2023-04-28T06:15:27;96244.00;;;2.85;86.68
23339;BME280;11841;49.368;20.962;2023-04-28T06:18:12;96247.19;;;2.97;86.12
23339;BME280;11841;49.368;20.962;2023-04-28T06:21:00;96242.31;;;3.10;86.74
23339;BME280;11841;49.368;20.962;2023-04-28T06:23:45;96242.00;;;3.21;86.80
23339;BME280;11841;49.368;20.962;2023-04-28T06:26:30;96237.81;;;3.36;86.21
23339;BME280;11841;49.368;20.962;2023-04-28T06:29:16;96244.38;;;3.48;85.60
23339;BME280;11841;49.368;20.962;2023-04-28T06:32:01;96237.22;;;3.58;84.98
23339;BME280;11841;49.368;20.962;2023-04-28T06:34:46;96237.06;;;3.67;84.63
23339;BME280;11841;49.368;20.962;2023-04-28T06:37:32;96239.56;;;3.85;84.49
23339;BME280;11841;49.368;20.962;2023-04-28T06:40:18;96242.84;;;4.03;83.94
23339;BME280;11841;49.368;20.962;2023-04-28T06:43:03;96235.78;;;4.20;83.69
23339;BME280;11841;49.368;20.962;2023-04-28T06:45:49;96239.03;;;4.38;82.62
23339;BME280;11841;49.368;20.962;2023-04-28T06:48:35;96235.56;;;4.53;82.42
23339;BME280;11841;49.368;20.962;2023-04-28T06:51:20;96230.00;;;4.64;81.31
23339;BME280;11841;49.368;20.962;2023-04-28T06:54:05;96228.16;;;4.73;81.39
23339;BME280;11841;49.368;20.962;2023-04-28T06:56:51;96227.31;;;4.88;80.59
23339;BME280;11841;49.368;20.962;2023-04-28T06:59:36;96225.09;;;5.08;79.44
23339;BME280;11841;49.368;20.962;2023-04-28T07:02:22;96221.75;;;5.22;78.49
23339;BME280;11841;49.368;20.962;2023-04-28T07:05:07;96226.13;;;5.30;78.06
23339;BME280;11841;49.368;20.962;2023-04-28T07:07:53;96225.75;;;5.41;77.96
23339;BME280;11841;49.368;20.962;2023-04-28T07:10:38;96222.25;;;5.48;77.80
23339;BME280;11841;49.368;20.962;2023-04-28T07:13:24;96226.38;;;5.51;77.87
23339;BME280;11841;49.368;20.962;2023-04-28T07:16:10;96228.81;;;5.52;78.55
23339;BME280;11841;49.368;20.962;2023-04-28T07:18:55;96221.56;;;5.54;79.01
23339;BME280;11841;49.368;20.962;2023-04-28T07:21:41;96222.84;;;5.58;79.22
23339;BME280;11841;49.368;20.962;2023-04-28T07:24:26;96220.56;;;5.63;79.46
23339;BME280;11841;49.368;20.962;2023-04-28T07:27:12;96224.28;;;5.69;79.38
23339;BME280;11841;49.368;20.962;2023-04-28T07:29:57;96215.00;;;5.81;78.94
23339;BME280;11841;49.368;20.962;2023-04-28T07:32:42;96215.91;;;5.96;78.42
23339;BME280;11841;49.368;20.962;2023-04-28T07:35:28;96218.41;;;6.12;77.42
23339;BME280;11841;49.368;20.962;2023-04-28T07:38:13;96213.94;;;6.35;73.20
23339;BME280;11841;49.368;20.962;2023-04-28T07:40:59;96214.34;;;6.61;70.53
23339;BME280;11841;49.368;20.962;2023-04-28T07:43:44;96206.25;;;6.77;69.41
23339;BME280;11841;49.368;20.962;2023-04-28T07:46:30;96201.34;;;7.03;68.80
23339;BME280;11841;49.368;20.962;2023-04-28T07:49:15;96199.69;;;7.31;66.75
23339;BME280;11841;49.368;20.962;2023-04-28T07:52:01;96195.91;;;7.55;66.05
23339;BME280;11841;49.368;20.962;2023-04-28T07:54:46;96195.41;;;7.66;64.71
23339;BME280;11841;49.368;20.962;2023-04-28T07:57:32;96185.13;;;7.71;66.23
23339;BME280;11841;49.368;20.962;2023-04-28T08:00:17;96183.63;;;7.83;65.70
23339;BME280;11841;49.368;20.962;2023-04-28T08:03:03;96177.66;;;7.96;64.69
23339;BME280;11841;49.368;20.962;2023-04-28T08:05:48;96177.72;;;8.02;64.02
23339;BME280;11841;49.368;20.962;2023-04-28T08:08:34;96178.50;;;8.03;61.13
23339;BME280;11841;49.368;20.962;2023-04-28T08:11:19;96172.31;;;8.10;60.98
23339;BME280;11841;49.368;20.962;2023-04-28T08:14:05;96157.75;;;8.21;60.72
23339;BME280;11841;49.368;20.962;2023-04-28T08:16:50;96160.34;;;8.35;61.37
23339;BME280;11841;49.368;20.962;2023-04-28T08:19:36;96160.63;;;8.47;61.29
23339;BME280;11841;49.368;20.962;2023-04-28T08:22:21;96152.06;;;8.73;61.19
23339;BME280;11841;49.368;20.962;2023-04-28T08:25:06;96158.84;;;8.88;59.96
23339;BME280;11841;49.368;20.962;2023-04-28T08:27:52;96153.81;;;8.93;59.72
23339;BME280;11841;49.368;20.962;2023-04-28T08:30:40;96160.97;;;8.99;59.29
23339;BME280;11841;49.368;20.962;2023-04-28T08:33:25;96155.28;;;9.02;58.69
23339;BME280;11841;49.368;20.962;2023-04-28T08:36:11;96146.78;;;9.13;57.27
23339;BME280;11841;49.368;20.962;2023-04-28T08:38:59;96141.56;;;9.26;58.26
23339;BME280;11841;49.368;20.962;2023-04-28T08:41:46;96145.63;;;9.35;56.99
23339;BME280;11841;49.368;20.962;2023-04-28T08:44:38;96144.25;;;9.46;56.79
23339;BME280;11841;49.368;20.962;2023-04-28T08:47:33;96146.06;;;9.45;53.43
23339;BME280;11841;49.368;20.962;2023-04-28T08:50:22;96139.38;;;9.49;54.81
23339;BME280;11841;49.368;20.962;2023-04-28T08:53:11;96135.91;;;9.55;56.59
23339;BME280;11841;49.368;20.962;2023-04-28T08:55:58;96140.44;;;9.61;56.26
23339;BME280;11841;49.368;20.962;2023-04-28T08:58:43;96131.06;;;9.65;56.40
23339;BME280;11841;49.368;20.962;2023-04-28T09:01:32;96132.72;;;9.73;57.54
23339;BME280;11841;49.368;20.962;2023-04-28T09:04:18;96127.00;;;9.82;55.52
23339;BME280;11841;49.368;20.962;2023-04-28T09:07:11;96124.56;;;9.81;55.03
23339;BME280;11841;49.368;20.962;2023-04-28T09:10:17;96123.16;;;9.92;54.32
23339;BME280;11841;49.368;20.962;2023-04-28T09:13:03;96135.16;;;9.88;53.51
23339;BME280;11841;49.368;20.962;2023-04-28T09:15:48;96135.16;;;9.88;54.15
23339;BME280;11841;49.368;20.962;2023-04-28T09:18:34;96120.09;;;9.88;54.24
23339;BME280;11841;49.368;20.962;2023-04-28T09:21:20;96118.06;;;9.90;53.88
23339;BME280;11841;49.368;20.962;2023-04-28T09:24:05;96112.16;;;9.95;53.79
23339;BME280;11841;49.368;20.962;2023-04-28T09:26:51;96103.41;;;10.01;52.84
23339;BME280;11841;49.368;20.962;2023-04-28T09:29:52;96105.44;;;9.99;51.62
23339;BME280;11841;49.368;20.962;2023-04-28T09:32:37;96105.03;;;10.02;52.13
23339;BME280;11841;49.368;20.962;2023-04-28T09:35:39;96106.06;;;10.07;50.66
23339;BME280;11841;49.368;20.962;2023-04-28T09:38:25;96103.84;;;10.11;51.77
23339;BME280;11841;49.368;20.962;2023-04-28T09:41:10;96100.38;;;10.17;50.56
23339;BME280;11841;49.368;20.962;2023-04-28T09:44:12;96104.25;;;10.27;50.83
23339;BME280;11841;49.368;20.962;2023-04-28T09:46:58;96109.34;;;10.29;50.23
23339;BME280;11841;49.368;20.962;2023-04-28T09:50:04;96105.91;;;10.28;50.36
23339;BME280;11841;49.368;20.962;2023-04-28T09:52:57;96097.09;;;10.41;50.77
23339;BME280;11841;49.368;20.962;2023-04-28T09:55:44;96096.88;;;10.42;51.00
23339;BME280;11841;49.368;20.962;2023-04-28T09:58:31;96086.88;;;10.51;50.70
23339;BME280;11841;49.368;20.962;2023-04-28T10:01:19;96082.56;;;10.63;49.56
23339;BME280;11841;49.368;20.962;2023-04-28T10:04:04;96088.25;;;10.79;50.91
23339;BME280;11841;49.368;20.962;2023-04-28T10:06:51;96076.81;;;10.85;50.18
23339;BME280;11841;49.368;20.962;2023-04-28T10:09:37;96060.66;;;10.93;49.95
23339;BME280;11841;49.368;20.962;2023-04-28T10:12:23;96068.56;;;11.00;48.43
23339;BME280;11841;49.368;20.962;2023-04-28T10:15:09;96066.72;;;11.07;48.44
23339;BME280;11841;49.368;20.962;2023-04-28T10:17:54;96060.75;;;11.12;48.31
23339;BME280;11841;49.368;20.962;2023-04-28T10:20:45;96064.00;;;11.20;48.27
23339;BME280;11841;49.368;20.962;2023-04-28T10:27:07;96060.06;;;11.29;49.34
23339;BME280;11841;49.368;20.962;2023-04-28T10:29:53;96060.66;;;11.38;48.74
23339;BME280;11841;49.368;20.962;2023-04-28T10:32:39;96055.28;;;11.44;48.72
23339;BME280;11841;49.368;20.962;2023-04-28T10:35:44;96046.72;;;11.42;48.54
23339;BME280;11841;49.368;20.962;2023-04-28T10:38:33;96045.31;;;11.40;48.37
23339;BME280;11841;49.368;20.962;2023-04-28T10:41:45;96032.25;;;11.38;48.68
23339;BME280;11841;49.368;20.962;2023-04-28T10:47:17;96021.72;;;11.56;48.00
23339;BME280;11841;49.368;20.962;2023-04-28T10:50:07;96017.22;;;11.57;46.26
23339;BME280;11841;49.368;20.962;2023-04-28T10:52:52;96022.78;;;11.49;46.07
23339;BME280;11841;49.368;20.962;2023-04-28T10:55:38;96015.38;;;11.57;47.44
23339;BME280;11841;49.368;20.962;2023-04-28T11:04:07;95997.91;;;11.74;45.49
23339;BME280;11841;49.368;20.962;2023-04-28T11:07:10;95989.94;;;11.74;44.35
23339;BME280;11841;49.368;20.962;2023-04-28T11:09:58;95983.38;;;11.77;45.44
23339;BME280;11841;49.368;20.962;2023-04-28T11:16:08;95983.38;;;12.01;46.08
23339;BME280;11841;49.368;20.962;2023-04-28T11:18:59;95980.00;;;12.12;46.48
23339;BME280;11841;49.368;20.962;2023-04-28T11:21:49;95970.13;;;12.20;46.14
23339;BME280;11841;49.368;20.962;2023-04-28T11:24:35;95980.59;;;12.33;46.22
23339;BME280;11841;49.368;20.962;2023-04-28T11:27:27;95973.97;;;12.42;45.58
23339;BME280;11841;49.368;20.962;2023-04-28T11:30:22;95969.53;;;12.54;46.53
23339;BME280;11841;49.368;20.962;2023-04-28T11:33:09;95975.00;;;12.59;45.28
23339;BME280;11841;49.368;20.962;2023-04-28T11:35:54;95977.81;;;12.64;45.84
23339;BME280;11841;49.368;20.962;2023-04-28T11:38:43;95957.63;;;12.74;46.13
23339;BME280;11841;49.368;20.962;2023-04-28T11:41:28;95949.56;;;12.63;44.21
23339;BME280;11841;49.368;20.962;2023-04-28T12:31:47;95912.22;;;14.04;43.16
23339;BME280;11841;49.368;20.962;2023-04-28T12:34:34;95917.28;;;14.17;44.10
23339;BME280;11841;49.368;20.962;2023-04-28T12:37:20;95897.47;;;14.13;42.44
23339;BME280;11841;49.368;20.962;2023-04-28T12:40:07;95901.06;;;14.07;42.40
23339;BME280;11841;49.368;20.962;2023-04-28T12:42:52;95892.34;;;14.12;42.33
23339;BME280;11841;49.368;20.962;2023-04-28T12:45:38;95890.50;;;14.24;42.63
23339;BME280;11841;49.368;20.962;2023-04-28T12:48:23;95894.69;;;14.20;41.64
23339;BME280;11841;49.368;20.962;2023-04-28T12:51:09;95890.63;;;14.17;42.76
23339;BME280;11841;49.368;20.962;2023-04-28T12:53:55;95876.94;;;14.25;43.65
23339;BME280;11841;49.368;20.962;2023-04-28T12:56:40;95869.59;;;14.44;44.84
23339;BME280;11841;49.368;20.962;2023-04-28T12:59:25;95866.53;;;14.64;43.63
23339;BME280;11841;49.368;20.962;2023-04-28T13:02:11;95871.97;;;14.69;42.28
23339;BME280;11841;49.368;20.962;2023-04-28T13:04:57;95865.75;;;14.80;41.78
23339;BME280;11841;49.368;20.962;2023-04-28T13:07:42;95855.19;;;14.85;41.32
23339;BME280;11841;49.368;20.962;2023-04-28T13:10:27;95850.28;;;14.65;40.44
23339;BME280;11841;49.368;20.962;2023-04-28T13:13:13;95836.88;;;14.48;40.69
23339;BME280;11841;49.368;20.962;2023-04-28T13:15:58;95841.34;;;14.60;41.20
23339;BME280;11841;49.368;20.962;2023-04-28T13:18:44;95844.44;;;14.68;41.22
23339;BME280;11841;49.368;20.962;2023-04-28T13:21:29;95841.53;;;14.81;41.46
23339;BME280;11841;49.368;20.962;2023-04-28T13:24:15;95843.38;;;14.81;41.64
23339;BME280;11841;49.368;20.962;2023-04-28T13:27:00;95848.78;;;14.86;41.07
23339;BME280;11841;49.368;20.962;2023-04-28T13:29:48;95841.53;;;14.98;41.72
23339;BME280;11841;49.368;20.962;2023-04-28T13:32:33;95837.22;;;14.97;41.62
23339;BME280;11841;49.368;20.962;2023-04-28T13:35:18;95830.78;;;15.09;41.49
23339;BME280;11841;49.368;20.962;2023-04-28T13:38:04;95834.28;;;15.10;41.03
23339;BME280;11841;49.368;20.962;2023-04-28T13:40:49;95834.28;;;15.26;41.00
23339;BME280;11841;49.368;20.962;2023-04-28T13:43:34;95835.00;;;15.22;41.32
23339;BME280;11841;49.368;20.962;2023-04-28T13:46:20;95836.66;;;15.39;41.22
23339;BME280;11841;49.368;20.962;2023-04-28T13:49:06;95834.22;;;15.54;41.68
23339;BME280;11841;49.368;20.962;2023-04-28T13:51:51;95839.94;;;15.63;41.15
23339;BME280;11841;49.368;20.962;2023-04-28T13:54:37;95831.94;;;15.63;41.54
23339;BME280;11841;49.368;20.962;2023-04-28T13:57:22;95830.91;;;15.64;41.86
23339;BME280;11841;49.368;20.962;2023-04-28T14:00:08;95818.03;;;15.61;41.53
23339;BME280;11841;49.368;20.962;2023-04-28T14:02:54;95815.75;;;15.53;41.67
23339;BME280;11841;49.368;20.962;2023-04-28T14:05:39;95810.91;;;15.50;41.07
23339;BME280;11841;49.368;20.962;2023-04-28T14:08:32;95801.81;;;15.34;40.83
23339;BME280;11841;49.368;20.962;2023-04-28T14:11:18;95798.66;;;15.37;40.39
23339;BME280;11841;49.368;20.962;2023-04-28T14:14:03;95794.22;;;15.43;40.82
23339;BME280;11841;49.368;20.962;2023-04-28T14:16:49;95794.88;;;15.50;41.19
23339;BME280;11841;49.368;20.962;2023-04-28T14:19:34;95795.19;;;15.53;41.31
23339;BME280;11841;49.368;20.962;2023-04-28T14:22:19;95784.91;;;15.62;42.49
23339;BME280;11841;49.368;20.962;2023-04-28T14:25:05;95774.97;;;15.57;40.60
23339;BME280;11841;49.368;20.962;2023-04-28T14:27:50;95770.06;;;15.54;40.62
23339;BME280;11841;49.368;20.962;2023-04-28T14:30:36;95767.59;;;15.48;40.12
23339;BME280;11841;49.368;20.962;2023-04-28T14:33:21;95771.91;;;15.49;41.51
23339;BME280;11841;49.368;20.962;2023-04-28T14:36:06;95768.47;;;15.53;40.11
23339;BME280;11841;49.368;20.962;2023-04-28T14:38:52;95764.19;;;15.52;39.88
23339;BME280;11841;49.368;20.962;2023-04-28T14:41:37;95758.16;;;15.62;41.34
23339;BME280;11841;49.368;20.962;2023-04-28T14:44:23;95755.06;;;15.70;41.71
23339;BME280;11841;49.368;20.962;2023-04-28T14:47:08;95767.88;;;15.68;41.36
23339;BME280;11841;49.368;20.962;2023-04-28T14:49:54;95758.88;;;15.74;40.70
23339;BME280;11841;49.368;20.962;2023-04-28T14:52:40;95763.84;;;15.87;41.06
23339;BME280;11841;49.368;20.962;2023-04-28T14:55:26;95763.19;;;15.97;41.81
23339;BME280;11841;49.368;20.962;2023-04-28T14:58:12;95754.22;;;16.08;42.42
23339;BME280;11841;49.368;20.962;2023-04-28T15:00:57;95756.63;;;16.09;42.02
23339;BME280;11841;49.368;20.962;2023-04-28T15:03:42;95763.13;;;16.13;42.03
23339;BME280;11841;49.368;20.962;2023-04-28T15:06:29;95765.03;;;16.18;41.58
23339;BME280;11841;49.368;20.962;2023-04-28T15:09:16;95768.81;;;16.00;40.92
23339;BME280;11841;49.368;20.962;2023-04-28T15:12:01;95757.03;;;15.96;41.41
23339;BME280;11841;49.368;20.962;2023-04-28T15:14:47;95761.88;;;15.99;41.89
23339;BME280;11841;49.368;20.962;2023-04-28T15:17:33;95765.72;;;16.08;42.02
23339;BME280;11841;49.368;20.962;2023-04-28T15:20:18;95756.00;;;16.02;41.17
23339;BME280;11841;49.368;20.962;2023-04-28T15:23:03;95759.13;;;15.94;41.61
23339;BME280;11841;49.368;20.962;2023-04-28T15:25:49;95746.94;;;16.03;41.76
23339;BME280;11841;49.368;20.962;2023-04-28T15:28:37;95741.22;;;16.16;42.27
23339;BME280;11841;49.368;20.962;2023-04-28T15:31:23;95748.88;;;16.08;41.77
23339;BME280;11841;49.368;20.962;2023-04-28T15:34:09;95753.91;;;16.04;42.22
23339;BME280;11841;49.368;20.962;2023-04-28T15:36:55;95757.16;;;16.06;42.18
23339;BME280;11841;49.368;20.962;2023-04-28T15:39:40;95750.78;;;15.91;42.32